createdAt,value
2022-11-26T00:02:32.927Z,2.22
2022-11-26T00:05:06.090Z,2.23
2022-11-26T00:07:36.293Z,2.25
2022-11-26T00:10:16.543Z,2.27
2022-11-26T00:12:45.442Z,2.28
2022-11-26T00:15:25.459Z,2.28
2022-11-26T00:17:53.609Z,2.30
2022-11-26T00:20:29.761Z,2.30
2022-11-26T00:23:00.339Z,2.30
2022-11-26T00:25:39.182Z,2.30
2022-11-26T00:28:32.566Z,2.32
2022-11-26T00:31:06.807Z,2.36
2022-11-26T00:33:34.413Z,2.39
2022-11-26T00:36:06.657Z,2.41
2022-11-26T00:38:34.777Z,2.43
2022-11-26T00:41:02.376Z,2.44
2022-11-26T00:43:29.952Z,2.44
2022-11-26T00:45:57.714Z,2.44
2022-11-26T00:48:25.377Z,2.46
2022-11-26T00:50:53.299Z,2.47
2022-11-26T00:53:24.472Z,2.49
2022-11-26T00:55:52.062Z,2.50
2022-11-26T00:58:23.986Z,2.52
2022-11-26T01:00:52.515Z,2.55
2022-11-26T01:03:20.157Z,2.58
2022-11-26T01:05:57.571Z,2.59
2022-11-26T01:08:32.891Z,2.59
2022-11-26T01:11:02.240Z,2.57
2022-11-26T01:13:31.330Z,2.57
2022-11-26T01:16:01.265Z,2.58
2022-11-26T01:18:34.634Z,2.59
2022-11-26T01:21:02.229Z,2.60
2022-11-26T01:23:29.812Z,2.61
2022-11-26T01:25:57.415Z,2.61
2022-11-26T01:28:24.999Z,2.61
2022-11-26T01:30:52.635Z,2.60
2022-11-26T01:33:20.194Z,2.60
2022-11-26T01:35:47.988Z,2.61
2022-11-26T01:38:15.910Z,2.62
2022-11-26T01:41:01.505Z,2.63
2022-11-26T01:43:39.299Z,2.64
2022-11-26T01:46:17.987Z,2.67
2022-11-26T01:48:49.706Z,2.68
2022-11-26T01:51:29.117Z,2.69
2022-11-26T01:54:01.018Z,2.69
2022-11-26T01:57:00.531Z,2.69
2022-11-26T01:59:33.318Z,2.71
2022-11-26T02:02:01.200Z,2.73
2022-11-26T02:04:38.857Z,2.75
2022-11-26T02:07:06.899Z,2.77
2022-11-26T02:09:35.075Z,2.79
2022-11-26T02:12:02.935Z,2.81
2022-11-26T02:14:39.925Z,2.81
2022-11-26T02:17:26.352Z,2.82
2022-11-26T02:20:20.378Z,2.81
2022-11-26T02:23:12.384Z,2.79
2022-11-26T02:25:55.580Z,2.79
2022-11-26T02:28:45.047Z,2.78
2022-11-26T02:31:34.734Z,2.77
2022-11-26T02:34:21.071Z,2.76
2022-11-26T02:36:57.343Z,2.75
2022-11-26T02:39:27.716Z,2.77
2022-11-26T02:41:58.657Z,2.78
2022-11-26T02:44:31.524Z,2.79
2022-11-26T02:47:06.331Z,2.79
2022-11-26T02:49:35.218Z,2.77
2022-11-26T02:52:05.302Z,2.77
2022-11-26T02:54:34.568Z,2.75
2022-11-26T02:57:08.972Z,2.74
2022-11-26T02:59:38.062Z,2.75
2022-11-26T03:02:13.749Z,2.76
2022-11-26T03:04:46.492Z,2.77
2022-11-26T03:07:14.791Z,2.79
2022-11-26T03:10:03.039Z,2.79
2022-11-26T03:12:30.807Z,2.79
2022-11-26T03:14:58.402Z,2.79
2022-11-26T03:17:25.978Z,2.78
2022-11-26T03:19:54.362Z,2.78
2022-11-26T03:22:22.090Z,2.76
2022-11-26T03:24:49.665Z,2.76
2022-11-26T03:27:17.321Z,2.77
2022-11-26T03:29:44.886Z,2.76
2022-11-26T03:32:12.552Z,2.75
2022-11-26T03:34:40.444Z,2.76
2022-11-26T03:37:08.781Z,2.76
2022-11-26T03:39:36.384Z,2.74
2022-11-26T03:42:04.311Z,2.74
2022-11-26T03:44:32.136Z,2.72
2022-11-26T03:46:59.736Z,2.69
2022-11-26T03:49:27.474Z,2.65
2022-11-26T03:51:55.063Z,2.60
2022-11-26T03:54:22.726Z,2.54
2022-11-26T03:56:50.283Z,2.55
2022-11-26T03:59:17.927Z,2.56
2022-11-26T04:01:45.777Z,2.60
2022-11-26T04:04:13.471Z,2.62
2022-11-26T04:06:41.093Z,2.64
2022-11-26T04:09:08.886Z,2.67
2022-11-26T04:11:36.845Z,2.68
2022-11-26T04:14:04.457Z,2.70
2022-11-26T04:16:32.162Z,2.71
2022-11-26T04:18:59.949Z,2.74
2022-11-26T04:21:27.582Z,2.75
2022-11-26T04:23:55.180Z,2.76
2022-11-26T04:26:22.812Z,2.76
2022-11-26T04:28:50.393Z,2.76
2022-11-26T04:31:18.208Z,2.76
2022-11-26T04:33:45.884Z,2.76
2022-11-26T04:36:13.502Z,2.74
2022-11-26T04:38:41.111Z,2.75
2022-11-26T04:41:08.787Z,2.75
2022-11-26T04:43:36.392Z,2.76
2022-11-26T04:46:04.262Z,2.77
2022-11-26T04:48:32.063Z,2.74
2022-11-26T04:50:59.667Z,2.71
2022-11-26T04:53:27.321Z,2.69
2022-11-26T04:55:55.048Z,2.69
2022-11-26T04:58:22.847Z,2.69
2022-11-26T05:00:51.481Z,2.69
2022-11-26T05:03:19.501Z,2.68
2022-11-26T05:05:47.144Z,2.69
2022-11-26T05:08:15.062Z,2.68
2022-11-26T05:10:42.688Z,2.67
2022-11-26T05:13:10.908Z,2.65
2022-11-26T05:15:38.493Z,2.65
2022-11-26T05:18:06.320Z,2.64
2022-11-26T05:20:33.901Z,2.65
2022-11-26T05:23:01.520Z,2.65
2022-11-26T05:25:29.454Z,2.67
2022-11-26T05:27:57.024Z,2.68
2022-11-26T05:30:24.683Z,2.68
2022-11-26T05:32:52.280Z,2.69
2022-11-26T05:35:20.137Z,2.70
2022-11-26T05:37:47.725Z,2.69
2022-11-26T05:40:15.652Z,2.67
2022-11-26T05:42:43.331Z,2.67
2022-11-26T05:45:11.388Z,2.67
2022-11-26T05:47:39.410Z,2.67
2022-11-26T05:50:07.956Z,2.66
2022-11-26T05:52:35.574Z,2.67
2022-11-26T05:55:03.312Z,2.68
2022-11-26T05:57:31.040Z,2.70
2022-11-26T05:59:58.602Z,2.71
2022-11-26T06:02:26.262Z,2.72
2022-11-26T06:04:53.925Z,2.74
2022-11-26T06:07:21.674Z,2.76
2022-11-26T06:09:49.286Z,2.77
2022-11-26T06:12:16.903Z,2.78
2022-11-26T06:14:45.111Z,2.80
2022-11-26T06:17:12.955Z,2.82
2022-11-26T06:19:40.649Z,2.84
2022-11-26T06:22:08.351Z,2.84
2022-11-26T06:24:36.574Z,2.84
2022-11-26T06:27:04.672Z,2.83
2022-11-26T06:29:32.283Z,2.83
2022-11-26T06:32:00.026Z,2.83
2022-11-26T06:34:27.729Z,2.83
2022-11-26T06:36:55.341Z,2.84
2022-11-26T06:39:25.345Z,2.85
2022-11-26T06:41:52.910Z,2.87
2022-11-26T06:44:20.591Z,2.90
2022-11-26T06:46:48.164Z,2.92
2022-11-26T06:49:15.769Z,2.94
2022-11-26T06:51:43.489Z,2.97
2022-11-26T06:54:11.061Z,3.00
2022-11-26T06:56:38.631Z,3.02
2022-11-26T06:59:06.495Z,3.02
2022-11-26T07:01:34.195Z,3.03
2022-11-26T07:04:01.842Z,3.06
2022-11-26T07:06:32.100Z,3.07
2022-11-26T07:09:03.925Z,3.09
2022-11-26T07:11:32.112Z,3.13
2022-11-26T07:13:59.677Z,3.15
2022-11-26T07:16:28.136Z,3.15
2022-11-26T07:19:02.688Z,3.15
2022-11-26T07:21:31.364Z,3.15
2022-11-26T07:23:59.435Z,3.14
2022-11-26T07:26:27.127Z,3.14
2022-11-26T07:28:54.796Z,3.14
2022-11-26T07:31:23.487Z,3.15
2022-11-26T07:33:51.481Z,3.18
2022-11-26T07:36:22.691Z,3.19
2022-11-26T07:38:50.597Z,3.18
2022-11-26T07:41:19.769Z,3.20
2022-11-26T07:43:47.838Z,3.24
2022-11-26T07:46:18.782Z,3.26
2022-11-26T07:48:46.653Z,3.29
2022-11-26T07:51:23.611Z,3.26
2022-11-26T07:53:52.322Z,3.22
2022-11-26T07:56:19.957Z,3.20
2022-11-26T07:58:48.277Z,3.15
2022-11-26T08:01:22.212Z,3.14
2022-11-26T08:03:51.426Z,3.19
2022-11-26T08:06:21.983Z,3.23
2022-11-26T08:08:50.093Z,3.25
2022-11-26T08:11:23.320Z,3.21
2022-11-26T08:14:20.351Z,3.15
2022-11-26T08:16:47.977Z,3.11
2022-11-26T08:19:15.674Z,3.12
2022-11-26T08:21:43.278Z,3.15
2022-11-26T08:24:14.192Z,3.13
2022-11-26T08:26:44.408Z,3.10
2022-11-26T08:29:13.766Z,3.10
2022-11-26T08:31:46.030Z,3.14
2022-11-26T08:34:15.780Z,3.13
2022-11-26T08:36:44.747Z,3.13
2022-11-26T08:39:14.585Z,3.15
2022-11-26T08:41:43.964Z,3.16
2022-11-26T08:44:15.182Z,3.16
2022-11-26T08:46:42.822Z,3.13
2022-11-26T08:49:12.729Z,3.15
2022-11-26T08:51:41.335Z,3.20
2022-11-26T08:54:09.544Z,3.24
2022-11-26T08:56:39.225Z,3.28
2022-11-26T08:59:06.824Z,3.30
2022-11-26T09:01:34.690Z,3.34
2022-11-26T09:04:04.222Z,3.36
2022-11-26T09:06:33.432Z,3.43
2022-11-26T09:09:01.442Z,3.49
2022-11-26T09:11:35.272Z,3.57
2022-11-26T09:14:03.030Z,3.64
2022-11-26T09:16:31.064Z,3.69
2022-11-26T09:19:03.148Z,3.73
2022-11-26T09:21:31.005Z,3.75
2022-11-26T09:23:58.879Z,3.77
2022-11-26T09:26:27.018Z,3.82
2022-11-26T09:28:54.695Z,3.87
2022-11-26T09:31:22.406Z,3.90
2022-11-26T09:33:50.190Z,3.91
2022-11-26T09:36:21.293Z,3.94
2022-11-26T09:38:48.959Z,3.99
2022-11-26T09:41:40.929Z,4.05
2022-11-26T09:44:27.181Z,4.16
2022-11-26T09:47:33.272Z,4.21
2022-11-26T09:50:06.871Z,4.22
2022-11-26T09:52:42.058Z,4.28
2022-11-26T09:55:20.817Z,4.31
2022-11-26T09:58:11.245Z,4.35
2022-11-26T10:00:41.899Z,4.37
2022-11-26T10:03:15.566Z,4.42
2022-11-26T10:05:55.427Z,4.49
2022-11-26T10:08:41.419Z,4.58
2022-11-26T10:11:11.903Z,4.68
2022-11-26T10:13:46.337Z,4.75
2022-11-26T10:16:49.168Z,4.77
2022-11-26T10:19:25.031Z,4.82
2022-11-26T10:22:00.670Z,4.92
2022-11-26T10:24:42.401Z,5.03
2022-11-26T10:27:15.051Z,5.12
2022-11-26T10:29:46.364Z,5.25
2022-11-26T10:32:18.585Z,5.34
2022-11-26T10:34:54.967Z,5.39
2022-11-26T10:37:25.116Z,5.49
2022-11-26T10:40:00.893Z,5.64
2022-11-26T10:42:43.652Z,5.79
2022-11-26T10:45:20.791Z,5.91
2022-11-26T10:47:48.607Z,6.08
2022-11-26T10:50:47.293Z,6.28
2022-11-26T10:53:25.192Z,6.51
2022-11-26T10:55:57.453Z,6.77
2022-11-26T10:58:39.388Z,6.87
2022-11-26T11:01:08.330Z,6.87
2022-11-26T11:06:40.554Z,7.19
2022-11-26T11:09:31.835Z,7.23
2022-11-26T11:12:11.680Z,7.24
2022-11-26T11:14:43.109Z,7.32
2022-11-26T11:17:23.092Z,7.33
2022-11-26T11:19:51.108Z,7.37
2022-11-26T11:22:20.111Z,7.38
2022-11-26T11:24:48.159Z,7.35
2022-11-26T11:27:41.429Z,7.33
2022-11-26T11:30:25.410Z,7.35
2022-11-26T11:32:57.576Z,7.42
2022-11-26T11:35:27.606Z,7.47
2022-11-26T11:37:56.825Z,7.56
2022-11-26T11:40:27.683Z,7.60
2022-11-26T11:43:02.141Z,7.70
2022-11-26T11:45:39.586Z,7.75
2022-11-26T11:48:13.252Z,7.77
2022-11-26T11:50:52.660Z,7.75
2022-11-26T11:53:59.666Z,7.71
2022-11-26T11:56:36.673Z,7.73
2022-11-26T11:59:20.918Z,7.78
2022-11-26T12:02:14.141Z,7.87
2022-11-26T12:05:17.078Z,7.91
2022-11-26T12:08:11.103Z,8.05
2022-11-26T12:11:17.919Z,8.15
2022-11-26T12:13:54.720Z,8.16
2022-11-26T12:16:27.420Z,8.18
2022-11-26T12:19:10.713Z,8.26
2022-11-26T12:21:54.466Z,8.36
2022-11-26T12:24:35.987Z,8.50
2022-11-26T12:27:06.446Z,8.59
2022-11-26T12:29:50.007Z,8.68
2022-11-26T12:32:24.580Z,8.71
2022-11-26T12:34:57.051Z,8.67
2022-11-26T12:37:34.775Z,8.58
2022-11-26T12:40:08.652Z,8.54
2022-11-26T12:42:45.460Z,8.45
2022-11-26T12:45:19.497Z,8.33
2022-11-26T12:47:57.803Z,8.24
2022-11-26T12:50:41.877Z,8.18
2022-11-26T12:53:36.984Z,8.07
2022-11-26T12:56:26.406Z,7.89
2022-11-26T12:58:57.669Z,7.83
2022-11-26T13:01:27.211Z,7.81
2022-11-26T13:04:21.521Z,7.79
2022-11-26T13:06:52.797Z,7.74
2022-11-26T13:10:08.738Z,7.72
2022-11-26T13:12:44.430Z,7.70
2022-11-26T13:15:21.447Z,7.68
2022-11-26T13:17:50.784Z,7.70
2022-11-26T13:20:46.756Z,7.69
2022-11-26T13:23:23.574Z,7.64
2022-11-26T13:26:29.017Z,7.63
2022-11-26T13:29:17.739Z,7.61
2022-11-26T13:31:55.329Z,7.61
2022-11-26T13:34:52.035Z,7.57
2022-11-26T13:37:50.932Z,7.54
2022-11-26T13:40:30.584Z,7.55
2022-11-26T13:43:41.701Z,7.60
2022-11-26T13:46:29.154Z,7.66
2022-11-26T13:49:02.662Z,7.64
2022-11-26T13:51:53.991Z,7.61
2022-11-26T13:54:29.441Z,7.56
2022-11-26T13:57:05.073Z,7.52
2022-11-26T13:59:34.084Z,7.48
2022-11-26T14:02:33.745Z,7.46
2022-11-26T14:05:05.551Z,7.43
2022-11-26T14:07:33.413Z,7.40
2022-11-26T14:10:02.708Z,7.37
2022-11-26T14:13:09.008Z,7.32
2022-11-26T14:15:42.714Z,7.27
2022-11-26T14:18:13.073Z,7.21
2022-11-26T14:21:03.761Z,7.13
2022-11-26T14:23:40.492Z,7.08
2022-11-26T14:26:34.757Z,7.03
2022-11-26T14:29:08.153Z,6.98
2022-11-26T14:31:46.462Z,6.92
2022-11-26T14:34:22.778Z,6.90
2022-11-26T14:36:56.081Z,6.89
2022-11-26T14:39:24.466Z,6.87
2022-11-26T14:42:00.528Z,6.85
2022-11-26T14:44:32.015Z,6.81
2022-11-26T14:47:07.757Z,6.77
2022-11-26T14:49:39.275Z,6.74
2022-11-26T14:52:20.879Z,6.72
2022-11-26T14:54:52.532Z,6.69
2022-11-26T14:57:26.135Z,6.66
2022-11-26T14:59:59.149Z,6.65
2022-11-26T15:02:29.534Z,6.63
2022-11-26T15:05:30.316Z,6.63
2022-11-26T15:08:00.761Z,6.64
2022-11-26T15:10:37.977Z,6.64
2022-11-26T15:13:34.096Z,6.67
2022-11-26T15:16:04.527Z,6.68
2022-11-26T15:18:35.285Z,6.69
2022-11-26T15:21:04.399Z,6.68
2022-11-26T15:23:36.815Z,6.67
2022-11-26T15:26:05.948Z,6.64
2022-11-26T15:28:38.726Z,6.64
2022-11-26T15:31:06.923Z,6.63
2022-11-26T15:33:35.840Z,6.61
2022-11-26T15:36:05.039Z,6.60
2022-11-26T15:38:34.915Z,6.61
2022-11-26T15:41:02.460Z,6.60
2022-11-26T15:43:48.624Z,6.60
2022-11-26T15:46:21.776Z,6.56
2022-11-26T15:48:53.825Z,6.49
2022-11-26T15:51:38.576Z,6.39
2022-11-26T15:54:21.724Z,6.28
2022-11-26T15:56:54.294Z,6.19
2022-11-26T15:59:24.631Z,6.14
2022-11-26T16:01:52.559Z,6.07
2022-11-26T16:04:42.015Z,5.98
2022-11-26T16:07:21.716Z,5.87
2022-11-26T16:09:51.409Z,5.78
2022-11-26T16:12:33.732Z,5.70
2022-11-26T16:15:10.156Z,5.63
2022-11-26T16:17:39.860Z,5.56
2022-11-26T16:20:17.381Z,5.50
2022-11-26T16:22:48.256Z,5.44
2022-11-26T16:25:28.615Z,5.39
2022-11-26T16:28:16.650Z,5.31
2022-11-26T16:30:46.485Z,5.22
2022-11-26T16:33:14.103Z,5.14
2022-11-26T16:35:46.574Z,5.09
2022-11-26T16:38:19.784Z,5.03
2022-11-26T16:40:47.975Z,4.96
2022-11-26T16:43:15.831Z,4.92
2022-11-26T16:45:44.047Z,4.86
2022-11-26T16:48:25.419Z,4.81
2022-11-26T16:50:54.392Z,4.76
2022-11-26T16:53:23.120Z,4.71
2022-11-26T16:55:53.431Z,4.64
2022-11-26T16:58:26.931Z,4.59
2022-11-26T17:00:56.026Z,4.56
2022-11-26T17:03:25.456Z,4.52
2022-11-26T17:05:58.299Z,4.46
2022-11-26T17:08:26.957Z,4.41
2022-11-26T17:10:54.774Z,4.37
2022-11-26T17:13:22.635Z,4.34
2022-11-26T17:15:50.497Z,4.31
2022-11-26T17:18:23.687Z,4.29
2022-11-26T17:20:53.122Z,4.23
2022-11-26T17:23:20.825Z,4.16
2022-11-26T17:25:53.146Z,4.11
2022-11-26T17:28:20.733Z,4.08
2022-11-26T17:30:51.176Z,4.02
2022-11-26T17:33:18.994Z,4.00
2022-11-26T17:35:49.294Z,3.98
2022-11-26T17:38:20.063Z,3.95
2022-11-26T17:40:48.281Z,3.90
2022-11-26T17:43:16.253Z,3.84
2022-11-26T17:45:44.254Z,3.79
2022-11-26T17:48:13.677Z,3.74
2022-11-26T17:50:41.487Z,3.69
2022-11-26T17:53:09.152Z,3.63
2022-11-26T17:55:36.803Z,3.55
2022-11-26T17:58:04.394Z,3.48
2022-11-26T18:00:32.145Z,3.43
2022-11-26T18:02:59.808Z,3.39
2022-11-26T18:05:27.599Z,3.36
2022-11-26T18:07:55.290Z,3.34
2022-11-26T18:10:23.535Z,3.30
2022-11-26T18:12:53.642Z,3.26
2022-11-26T18:15:23.779Z,3.25
2022-11-26T18:17:53.852Z,3.22
2022-11-26T18:20:24.634Z,3.14
2022-11-26T18:22:55.285Z,3.08
2022-11-26T18:25:23.075Z,3.09
2022-11-26T18:27:52.053Z,3.11
2022-11-26T18:30:20.221Z,3.14
2022-11-26T18:32:47.892Z,3.15
2022-11-26T18:35:15.615Z,3.17
2022-11-26T18:37:45.373Z,3.18
2022-11-26T18:40:15.557Z,3.16
2022-11-26T18:42:43.886Z,3.15
2022-11-26T18:45:14.810Z,3.15
2022-11-26T18:47:42.736Z,3.13
2022-11-26T18:50:11.065Z,3.08
2022-11-26T18:52:38.662Z,3.07
2022-11-26T18:55:07.181Z,3.05
2022-11-26T18:57:35.843Z,3.03
2022-11-26T19:00:05.010Z,3.02
2022-11-26T19:02:35.564Z,3.01
2022-11-26T19:05:04.493Z,3.00
2022-11-26T19:07:32.074Z,2.99
2022-11-26T19:09:59.761Z,2.99
2022-11-26T19:12:27.369Z,2.99
2022-11-26T19:14:55.041Z,3.01
2022-11-26T19:17:22.680Z,3.07
2022-11-26T19:19:50.245Z,3.12
2022-11-26T19:22:17.906Z,3.18
2022-11-26T19:24:45.575Z,3.23
2022-11-26T19:27:13.261Z,3.27
2022-11-26T19:29:41.098Z,3.32
2022-11-26T19:32:08.817Z,3.33
2022-11-26T19:34:36.556Z,3.34
2022-11-26T19:37:04.179Z,3.36
2022-11-26T19:39:31.989Z,3.37
2022-11-26T19:41:59.662Z,3.39
2022-11-26T19:44:27.320Z,3.43
2022-11-26T19:46:54.912Z,3.46
2022-11-26T19:49:22.689Z,3.49
2022-11-26T19:51:50.390Z,3.53
2022-11-26T19:54:17.997Z,3.57
2022-11-26T19:56:45.679Z,3.63
2022-11-26T19:59:13.437Z,3.68
2022-11-26T20:01:41.414Z,3.73
2022-11-26T20:04:14.797Z,3.72
2022-11-26T20:06:42.676Z,3.69
2022-11-26T20:09:12.723Z,3.66
2022-11-26T20:11:41.410Z,3.69
2022-11-26T20:14:09.100Z,3.72
2022-11-26T20:16:38.402Z,3.74
2022-11-26T20:19:06.083Z,3.72
2022-11-26T20:21:34.219Z,3.72
2022-11-26T20:24:05.395Z,3.71
2022-11-26T20:26:38.711Z,3.70
2022-11-26T20:29:08.533Z,3.69
2022-11-26T20:31:43.825Z,3.72
2022-11-26T20:34:16.079Z,3.76
2022-11-26T20:36:44.239Z,3.80
2022-11-26T20:39:17.474Z,3.80
2022-11-26T20:41:45.316Z,3.82
2022-11-26T20:44:13.858Z,3.84
2022-11-26T20:46:42.283Z,3.87
2022-11-26T20:49:09.920Z,3.89
2022-11-26T20:51:38.137Z,3.89
2022-11-26T20:54:05.827Z,3.89
2022-11-26T20:56:33.803Z,3.87
2022-11-26T20:59:01.907Z,3.85
2022-11-26T21:01:30.369Z,3.84
2022-11-26T21:03:58.282Z,3.84
2022-11-26T21:06:29.937Z,3.82
2022-11-26T21:09:03.682Z,3.82
2022-11-26T21:11:31.452Z,3.81
2022-11-26T21:14:00.482Z,3.80
2022-11-26T21:16:29.103Z,3.78
2022-11-26T21:18:57.421Z,3.76
2022-11-26T21:21:26.100Z,3.74
2022-11-26T21:23:54.191Z,3.73
2022-11-26T21:26:24.571Z,3.75
2022-11-26T21:28:58.628Z,3.78
2022-11-26T21:31:29.326Z,3.80
2022-11-26T21:34:08.060Z,3.82
2022-11-26T21:36:38.166Z,3.84
2022-11-26T21:39:05.985Z,3.83
2022-11-26T21:41:33.789Z,3.80
2022-11-26T21:44:01.577Z,3.78
2022-11-26T21:46:33.703Z,3.76
2022-11-26T21:49:05.926Z,3.72
2022-11-26T21:51:33.636Z,3.70
2022-11-26T21:54:01.217Z,3.71
2022-11-26T21:56:30.986Z,3.72
2022-11-26T21:59:00.105Z,3.75
2022-11-26T22:01:28.714Z,3.76
2022-11-26T22:03:59.564Z,3.75
2022-11-26T22:06:27.592Z,3.75
2022-11-26T22:08:55.406Z,3.76
2022-11-26T22:11:25.983Z,3.78
2022-11-26T22:13:54.361Z,3.81
2022-11-26T22:16:24.104Z,3.85
2022-11-26T22:18:53.104Z,3.85
2022-11-26T22:21:22.479Z,3.86
2022-11-26T22:23:51.320Z,3.84
2022-11-26T22:26:20.208Z,3.83
2022-11-26T22:28:48.282Z,3.81
2022-11-26T22:31:27.702Z,3.80
2022-11-26T22:34:13.427Z,3.79
2022-11-26T22:36:43.364Z,3.81
2022-11-26T22:39:14.562Z,3.82
2022-11-26T22:41:44.083Z,3.85
2022-11-26T22:44:13.276Z,3.87
2022-11-26T22:46:41.022Z,3.88
2022-11-26T22:49:13.281Z,3.89
2022-11-26T22:51:41.399Z,3.92
2022-11-26T22:54:11.888Z,3.95
2022-11-26T22:56:40.198Z,3.96
2022-11-26T22:59:12.455Z,3.95
2022-11-26T23:01:40.116Z,3.95
2022-11-26T23:04:09.162Z,3.93
2022-11-26T23:06:38.114Z,3.90
2022-11-26T23:09:07.849Z,3.87
2022-11-26T23:11:38.702Z,3.86
2022-11-26T23:14:07.010Z,3.86
2022-11-26T23:16:36.541Z,3.87
2022-11-26T23:19:04.444Z,3.88
2022-11-26T23:21:38.221Z,3.87
2022-11-26T23:24:06.862Z,3.84
2022-11-26T23:26:36.637Z,3.84
2022-11-26T23:29:05.767Z,3.87
2022-11-26T23:31:39.149Z,3.89
2022-11-26T23:34:07.895Z,3.88
2022-11-26T23:36:36.587Z,3.86
2022-11-26T23:39:06.365Z,3.85
2022-11-26T23:41:34.109Z,3.82
2022-11-26T23:44:01.762Z,3.80
2022-11-26T23:46:32.145Z,3.78
2022-11-26T23:48:59.837Z,3.75
2022-11-26T23:51:30.225Z,3.72
2022-11-26T23:53:57.938Z,3.69
2022-11-26T23:56:31.619Z,3.67
2022-11-26T23:59:01.365Z,3.67
